Time;durP1;ratioP1;P1;durP2;ratioP2;P2;SDS_P1;SDS_P2;PMS_P1;PMS_P2;Temp;Humidity;BMP_temperature;BMP_pressure;BME280_temperature;BME280_humidity;BME280_pressure;Samples;Min_cycle;Max_cycle;Signal;HPM_P1;HPM_P2
2021/10/02 00:36:18;;;;;;;0.90;0.90;;;;;;;;;;5033889;28;20186;-84
2021/10/02 00:41:49;;;;;;;1.40;1.30;;;;;;;;;;5096465;28;20200;-84
2021/10/02 00:47:01;;;;;;;1.10;1.00;;;;;;;;;;5096751;28;20230;-84
2021/10/02 00:49:30;;;;;;;0.90;0.90;;;;;;;;;;5096861;28;20223;-84
2021/10/02 00:51:58;;;;;;;0.88;0.88;;;;;;;;;;5096566;28;20185;-84
2021/10/02 00:54:25;;;;;;;1.35;1.27;;;;;;;;;;5096254;28;20204;-84
2021/10/02 00:56:53;;;;;;;1.40;1.27;;;;;;;;;;5096408;28;20729;-84
2021/10/02 00:59:21;;;;;;;1.25;1.15;;;;;;;;;;5096092;28;20234;-84
2021/10/02 01:01:54;;;;;;;1.00;1.00;;;;;;;;;;5096689;28;20714;-84
2021/10/02 01:04:33;;;;;;;1.50;1.30;;;;;;;;;;5096232;28;20654;-84
2021/10/02 01:07:09;;;;;;;0.90;0.90;;;;;;;;;;5096270;28;20180;-84
2021/10/02 01:10:06;;;;;;;1.25;1.15;;;;;;;;;;5096209;28;20233;-84
2021/10/02 01:12:46;;;;;;;2.00;1.90;;;;;;;;;;5096646;28;20189;-84
2021/10/02 01:15:20;;;;;;;1.20;1.10;;;;;;;;;;5096522;28;20244;-83
2021/10/02 01:17:54;;;;;;;1.52;1.42;;;;;;;;;;5096254;28;20180;-84
2021/10/02 01:20:35;;;;;;;1.33;1.20;;;;;;;;;;5095589;28;20227;-84
2021/10/02 01:23:28;;;;;;;1.70;1.60;;;;;;;;;;5096349;28;20624;-84
2021/10/02 01:26:09;;;;;;;1.30;1.20;;;;;;;;;;5096226;28;20196;-84
2021/10/02 01:28:39;;;;;;;1.40;1.02;;;;;;;;;;5095687;28;20231;-84
2021/10/02 01:31:17;;;;;;;1.38;1.27;;;;;;;;;;5095904;28;20185;-84
2021/10/02 01:33:53;;;;;;;1.15;1.10;;;;;;;;;;5096019;28;20229;-83
2021/10/02 01:36:31;;;;;;;1.20;1.10;;;;;;;;;;5095451;28;20207;-84
2021/10/02 01:47:26;;;;;;;1.48;1.10;;;;;;;;;;5019416;28;20681;-84
2021/10/02 01:49:56;;;;;;;1.00;1.00;;;;;;;;;;5096516;28;20592;-85
2021/10/02 01:52:27;;;;;;;1.20;1.10;;;;;;;;;;5096219;28;20184;-84
2021/10/02 01:54:58;;;;;;;5.32;2.45;;;;;;;;;;5096329;28;20187;-84
2021/10/02 01:57:29;;;;;;;1.88;1.20;;;;;;;;;;5095822;28;20189;-84
2021/10/02 02:00:01;;;;;;;1.35;0.80;;;;;;;;;;5095981;28;20307;-84
2021/10/02 02:02:30;;;;;;;1.23;0.75;;;;;;;;;;5095473;28;20208;-84
2021/10/02 02:04:59;;;;;;;1.77;1.10;;;;;;;;;;5096198;28;20567;-83
2021/10/02 02:07:27;;;;;;;0.70;0.70;;;;;;;;;;5094935;28;20207;-84
2021/10/02 02:09:57;;;;;;;0.80;0.80;;;;;;;;;;5095355;28;20219;-84
2021/10/02 02:12:30;;;;;;;0.82;0.80;;;;;;;;;;5095838;28;20201;-84
2021/10/02 02:15:01;;;;;;;0.70;0.70;;;;;;;;;;5095774;28;20212;-84
2021/10/02 02:17:28;;;;;;;0.70;0.70;;;;;;;;;;5095637;28;20193;-84
2021/10/02 02:19:57;;;;;;;0.70;0.70;;;;;;;;;;5094865;28;20239;-85
2021/10/02 02:22:25;;;;;;;0.90;0.73;;;;;;;;;;5095625;28;20196;-84
2021/10/02 02:24:52;;;;;;;1.80;1.10;;;;;;;;;;5097280;28;20199;-84
2021/10/02 02:27:20;;;;;;;0.77;0.77;;;;;;;;;;5099317;28;20187;-83
2021/10/02 02:29:49;;;;;;;0.77;0.77;;;;;;;;;;5099918;28;20591;-84
2021/10/02 02:32:18;;;;;;;1.35;0.95;;;;;;;;;;5099936;28;20188;-84
2021/10/02 02:34:47;;;;;;;0.98;0.80;;;;;;;;;;5098853;28;20284;-83
2021/10/02 02:37:15;;;;;;;0.70;0.70;;;;;;;;;;5099413;28;20733;-84
2021/10/02 02:39:43;;;;;;;0.88;0.88;;;;;;;;;;5099558;28;20228;-84
2021/10/02 02:42:10;;;;;;;1.13;1.10;;;;;;;;;;5100241;28;20187;-85
2021/10/02 02:44:38;;;;;;;1.33;1.15;;;;;;;;;;5098507;28;20289;-83
2021/10/02 02:47:09;;;;;;;1.15;1.10;;;;;;;;;;5098092;28;20207;-84
2021/10/02 02:49:47;;;;;;;0.80;0.80;;;;;;;;;;5097744;28;20219;-84
2021/10/02 02:52:19;;;;;;;0.77;0.77;;;;;;;;;;5098399;28;20643;-84
2021/10/02 02:54:54;;;;;;;0.82;0.82;;;;;;;;;;5098795;28;20208;-85
2021/10/02 02:57:26;;;;;;;1.05;1.00;;;;;;;;;;5098968;28;20187;-85
2021/10/02 03:00:05;;;;;;;0.65;0.65;;;;;;;;;;5098958;28;20224;-84
2021/10/02 03:02:35;;;;;;;0.82;0.82;;;;;;;;;;5098879;28;20225;-85
2021/10/02 03:05:06;;;;;;;0.95;0.93;;;;;;;;;;5098837;28;20207;-83
2021/10/02 03:07:35;;;;;;;8.20;2.63;;;;;;;;;;5098203;28;20195;-84
2021/10/02 03:10:04;;;;;;;1.15;1.05;;;;;;;;;;5098577;28;20243;-84
2021/10/02 03:12:37;;;;;;;1.02;0.93;;;;;;;;;;5099193;28;20275;-85
2021/10/02 03:15:06;;;;;;;0.90;0.90;;;;;;;;;;5098698;28;20245;-84
2021/10/02 03:17:35;;;;;;;2.08;1.40;;;;;;;;;;5099083;28;20200;-84
2021/10/02 03:20:07;;;;;;;1.30;1.00;;;;;;;;;;5098132;28;20231;-85
2021/10/02 03:22:35;;;;;;;1.95;0.88;;;;;;;;;;5098646;28;20196;-84
2021/10/02 03:25:05;;;;;;;1.00;1.00;;;;;;;;;;5098308;28;20180;-84
2021/10/02 03:27:33;;;;;;;0.93;0.77;;;;;;;;;;5098638;28;20188;-84
2021/10/02 03:30:01;;;;;;;1.45;1.10;;;;;;;;;;5098081;28;20591;-83
2021/10/02 03:32:29;;;;;;;1.65;1.55;;;;;;;;;;5098676;28;20187;-84
2021/10/02 03:34:57;;;;;;;1.45;0.95;;;;;;;;;;5098062;28;20196;-85
2021/10/02 03:37:26;;;;;;;1.30;0.90;;;;;;;;;;5098365;28;20237;-84
2021/10/02 03:39:55;;;;;;;0.90;0.90;;;;;;;;;;5097763;28;20218;-84
2021/10/02 03:42:24;;;;;;;1.45;1.00;;;;;;;;;;5097023;28;20188;-84
2021/10/02 03:44:53;;;;;;;1.33;1.23;;;;;;;;;;5098620;28;20204;-84
2021/10/02 03:47:22;;;;;;;1.02;1.02;;;;;;;;;;5098575;28;20185;-85
2021/10/02 03:49:50;;;;;;;1.58;1.23;;;;;;;;;;5096902;28;20209;-85
2021/10/02 03:52:20;;;;;;;0.88;0.88;;;;;;;;;;5099038;28;20267;-84
2021/10/02 03:54:49;;;;;;;1.65;1.23;;;;;;;;;;5098579;28;20204;-84
2021/10/02 03:57:16;;;;;;;2.00;1.00;;;;;;;;;;5098454;28;20196;-84
2021/10/02 03:59:43;;;;;;;1.33;1.15;;;;;;;;;;5098573;28;20230;-83
2021/10/02 04:02:11;;;;;;;1.20;1.00;;;;;;;;;;5097917;28;20223;-86
2021/10/02 04:04:38;;;;;;;1.30;1.20;;;;;;;;;;5098110;28;20187;-84
2021/10/02 04:07:06;;;;;;;1.30;1.20;;;;;;;;;;5098236;28;20196;-84
2021/10/02 04:09:34;;;;;;;0.90;0.90;;;;;;;;;;5098073;28;20225;-84
2021/10/02 04:12:03;;;;;;;0.95;0.90;;;;;;;;;;5097464;28;20188;-84
2021/10/02 04:14:30;;;;;;;0.90;0.90;;;;;;;;;;5097385;28;20180;-85
2021/10/02 04:16:58;;;;;;;2.85;1.45;;;;;;;;;;5097384;28;20187;-84
2021/10/02 04:19:25;;;;;;;0.60;0.60;;;;;;;;;;5097321;28;20220;-85
2021/10/02 04:21:53;;;;;;;1.23;1.10;;;;;;;;;;5097192;28;20230;-85
2021/10/02 04:24:22;;;;;;;2.22;1.38;;;;;;;;;;5097626;28;20208;-84
2021/10/02 04:26:50;;;;;;;1.67;1.58;;;;;;;;;;5097433;28;20200;-85
2021/10/02 04:29:19;;;;;;;1.13;1.02;;;;;;;;;;5097130;28;20216;-85
2021/10/02 04:31:46;;;;;;;0.90;0.90;;;;;;;;;;5096942;28;20563;-85
2021/10/02 04:34:13;;;;;;;0.82;0.82;;;;;;;;;;5096492;28;20189;-84
2021/10/02 04:36:41;;;;;;;1.17;1.15;;;;;;;;;;5096658;28;20930;-83
2021/10/02 04:39:08;;;;;;;1.30;1.05;;;;;;;;;;5082611;28;20313;-85
2021/10/02 04:41:36;;;;;;;1.30;1.20;;;;;;;;;;5085505;28;20200;-85
2021/10/02 04:44:04;;;;;;;1.23;1.20;;;;;;;;;;5092124;28;20199;-85
2021/10/02 04:46:34;;;;;;;1.25;1.15;;;;;;;;;;5097169;28;20177;-84
2021/10/02 04:49:01;;;;;;;1.30;1.20;;;;;;;;;;5079108;28;20217;-85
2021/10/02 04:51:29;;;;;;;1.45;1.35;;;;;;;;;;5076001;28;20207;-85
2021/10/02 04:53:56;;;;;;;1.60;1.40;;;;;;;;;;5077629;28;20197;-84
2021/10/02 04:56:24;;;;;;;1.10;1.10;;;;;;;;;;5076831;28;20577;-85
2021/10/02 04:58:51;;;;;;;4.35;1.02;;;;;;;;;;5076665;28;20316;-84
2021/10/02 05:01:19;;;;;;;1.35;1.25;;;;;;;;;;5076288;28;20228;-85
2021/10/02 05:03:48;;;;;;;1.33;1.20;;;;;;;;;;5076735;28;20182;-84
2021/10/02 05:06:15;;;;;;;1.20;1.10;;;;;;;;;;5076375;28;20182;-84
2021/10/02 05:08:44;;;;;;;1.33;1.23;;;;;;;;;;5077143;28;20233;-85
2021/10/02 05:11:11;;;;;;;3.25;2.70;;;;;;;;;;5077112;28;20196;-84
2021/10/02 05:13:39;;;;;;;1.05;1.02;;;;;;;;;;5077218;28;20196;-84
2021/10/02 05:16:06;;;;;;;1.63;1.20;;;;;;;;;;5076574;28;20292;-85
2021/10/02 05:18:34;;;;;;;1.30;1.20;;;;;;;;;;5076561;28;20241;-84
2021/10/02 05:21:03;;;;;;;2.15;1.27;;;;;;;;;;5076237;28;20208;-85
2021/10/02 05:23:31;;;;;;;1.35;1.25;;;;;;;;;;5077363;28;20189;-84
2021/10/02 05:25:58;;;;;;;0.82;0.82;;;;;;;;;;5076867;28;20209;-85
2021/10/02 05:28:26;;;;;;;1.60;1.50;;;;;;;;;;5076591;28;20220;-85
2021/10/02 05:30:54;;;;;;;1.45;1.35;;;;;;;;;;5076849;28;20200;-85
2021/10/02 05:33:21;;;;;;;0.68;0.68;;;;;;;;;;5075256;28;20197;-86
2021/10/02 05:35:50;;;;;;;0.80;0.80;;;;;;;;;;5073231;28;20173;-86
2021/10/02 05:38:20;;;;;;;2.25;1.85;;;;;;;;;;5073527;28;20291;-86
2021/10/02 05:40:48;;;;;;;1.30;1.20;;;;;;;;;;5075453;28;20196;-85
2021/10/02 05:43:16;;;;;;;1.10;1.10;;;;;;;;;;5072753;28;20228;-86
2021/10/02 05:45:43;;;;;;;1.10;1.10;;;;;;;;;;5073334;28;20216;-86
2021/10/02 05:48:11;;;;;;;1.25;1.25;;;;;;;;;;5072737;28;20204;-86
2021/10/02 05:50:39;;;;;;;1.00;0.90;;;;;;;;;;5073176;28;20184;-85
2021/10/02 05:53:07;;;;;;;1.30;1.17;;;;;;;;;;5073502;28;20188;-86
2021/10/02 05:55:36;;;;;;;1.10;1.00;;;;;;;;;;5073215;28;20185;-86
2021/10/02 05:58:04;;;;;;;1.67;1.45;;;;;;;;;;5073272;28;20188;-86
2021/10/02 06:00:31;;;;;;;1.35;1.25;;;;;;;;;;5076350;28;20192;-86
2021/10/02 06:03:01;;;;;;;1.75;1.13;;;;;;;;;;5077345;28;20220;-85
2021/10/02 06:05:29;;;;;;;1.30;1.20;;;;;;;;;;5078249;28;20188;-86
2021/10/02 06:07:57;;;;;;;1.00;1.00;;;;;;;;;;5079789;28;20561;-86
2021/10/02 06:10:25;;;;;;;1.17;1.10;;;;;;;;;;5078420;28;20640;-87
2021/10/02 06:12:55;;;;;;;1.40;1.30;;;;;;;;;;5077597;28;20208;-87
2021/10/02 06:15:23;;;;;;;1.70;1.17;;;;;;;;;;5079478;28;20181;-86
2021/10/02 06:17:51;;;;;;;1.00;1.00;;;;;;;;;;5077584;28;20185;-85
2021/10/02 06:20:19;;;;;;;1.40;1.30;;;;;;;;;;5078622;28;20221;-86
2021/10/02 06:22:46;;;;;;;3.53;1.25;;;;;;;;;;5078275;28;20213;-86
2021/10/02 06:25:15;;;;;;;2.47;1.55;;;;;;;;;;5078451;28;20189;-85
2021/10/02 06:27:42;;;;;;;1.60;1.50;;;;;;;;;;5075804;28;20655;-85
2021/10/02 06:30:12;;;;;;;1.98;1.60;;;;;;;;;;5076113;28;20227;-86
2021/10/02 06:32:39;;;;;;;4.15;1.92;;;;;;;;;;5076417;28;20236;-85
2021/10/02 06:35:07;;;;;;;2.78;1.52;;;;;;;;;;5075972;28;20185;-85
2021/10/02 06:37:35;;;;;;;1.75;1.20;;;;;;;;;;5078526;28;20255;-85
2021/10/02 06:40:05;;;;;;;1.65;1.55;;;;;;;;;;5096611;28;20216;-85
2021/10/02 06:42:32;;;;;;;1.35;1.23;;;;;;;;;;5097471;28;20205;-85
2021/10/02 06:45:00;;;;;;;2.08;1.60;;;;;;;;;;5095910;28;20199;-86
2021/10/02 06:47:29;;;;;;;2.08;1.80;;;;;;;;;;5095901;28;20204;-86
2021/10/02 06:49:57;;;;;;;1.55;1.45;;;;;;;;;;5095116;28;20685;-86
2021/10/02 06:52:25;;;;;;;1.50;1.40;;;;;;;;;;5096206;28;20181;-86
2021/10/02 06:54:53;;;;;;;2.13;1.65;;;;;;;;;;5096443;28;20184;-86
2021/10/02 06:57:21;;;;;;;1.48;1.38;;;;;;;;;;5095683;28;20200;-86
2021/10/02 06:59:50;;;;;;;1.77;1.67;;;;;;;;;;5096852;28;20581;-88
2021/10/02 07:02:17;;;;;;;3.75;2.25;;;;;;;;;;5096897;28;20291;-86
2021/10/02 07:04:49;;;;;;;2.88;1.77;;;;;;;;;;5096407;28;20191;-86
2021/10/02 07:07:17;;;;;;;3.33;1.73;;;;;;;;;;5077801;28;20219;-86
2021/10/02 07:09:45;;;;;;;1.77;1.67;;;;;;;;;;5076697;28;20221;-87
2021/10/02 07:12:13;;;;;;;1.85;1.70;;;;;;;;;;5075401;28;20205;-87
2021/10/02 07:14:41;;;;;;;1.65;1.55;;;;;;;;;;5074801;28;20178;-86
2021/10/02 07:17:10;;;;;;;1.60;1.35;;;;;;;;;;5073946;28;20185;-86
2021/10/02 07:19:37;;;;;;;1.88;1.70;;;;;;;;;;5074739;28;20227;-86
2021/10/02 07:22:07;;;;;;;1.70;1.60;;;;;;;;;;5074494;28;20660;-85
2021/10/02 07:24:34;;;;;;;2.60;2.40;;;;;;;;;;5074431;28;20181;-87
2021/10/02 07:27:02;;;;;;;3.08;1.95;;;;;;;;;;5075008;28;20185;-85
2021/10/02 07:29:30;;;;;;;1.80;1.65;;;;;;;;;;5074151;28;20706;-85
2021/10/02 07:31:57;;;;;;;1.30;1.20;;;;;;;;;;5074524;28;20182;-86
2021/10/02 07:34:26;;;;;;;2.13;1.95;;;;;;;;;;5075066;28;20201;-86
2021/10/02 07:36:54;;;;;;;2.40;1.65;;;;;;;;;;5075234;28;20272;-86
2021/10/02 07:39:23;;;;;;;4.35;2.08;;;;;;;;;;5075261;28;20595;-87
2021/10/02 07:41:50;;;;;;;2.95;2.08;;;;;;;;;;5074692;28;20219;-86
2021/10/02 07:44:21;;;;;;;1.83;1.33;;;;;;;;;;5073120;28;20215;-85
2021/10/02 07:46:51;;;;;;;1.65;1.55;;;;;;;;;;5093651;28;20208;-89
2021/10/02 07:49:20;;;;;;;2.92;2.20;;;;;;;;;;5094672;28;20242;-86
2021/10/02 07:51:50;;;;;;;1.90;1.80;;;;;;;;;;5095418;28;20177;-85
2021/10/02 07:54:19;;;;;;;3.47;3.17;;;;;;;;;;5095861;28;20183;-85
2021/10/02 07:56:49;;;;;;;2.08;1.80;;;;;;;;;;5094978;28;20694;-86
2021/10/02 07:59:17;;;;;;;2.70;1.55;;;;;;;;;;5093193;28;20589;-86
2021/10/02 08:01:45;;;;;;;1.75;1.65;;;;;;;;;;5094536;28;20204;-86
2021/10/02 08:04:13;;;;;;;2.10;1.98;;;;;;;;;;5092620;28;20307;-86
2021/10/02 08:06:40;;;;;;;1.90;1.80;;;;;;;;;;5093282;28;20181;-83
2021/10/02 08:09:08;;;;;;;1.70;1.60;;;;;;;;;;5094637;28;20727;-85
2021/10/02 08:11:35;;;;;;;2.38;2.17;;;;;;;;;;5094709;28;20184;-84
2021/10/02 08:14:08;;;;;;;3.03;1.92;;;;;;;;;;5094571;28;20211;-85
2021/10/02 08:16:39;;;;;;;1.88;1.60;;;;;;;;;;5094855;28;20193;-85
2021/10/02 08:19:09;;;;;;;2.08;1.85;;;;;;;;;;5094633;28;20224;-86
2021/10/02 08:21:40;;;;;;;1.83;1.48;;;;;;;;;;5093558;28;20185;-86
2021/10/02 08:35:22;;;;;;;2.25;1.50;;;;;;;;;;5081569;28;20207;-85
2021/10/02 08:37:51;;;;;;;1.60;1.50;;;;;;;;;;5092814;28;22075;-85
2021/10/02 08:40:20;;;;;;;1.60;1.50;;;;;;;;;;5094546;28;20216;-85
2021/10/02 08:43:04;;;;;;;1.15;1.05;;;;;;;;;;5095012;28;20220;-85
2021/10/02 08:45:33;;;;;;;2.97;1.58;;;;;;;;;;5096908;28;20223;-87
2021/10/02 08:48:01;;;;;;;2.30;1.45;;;;;;;;;;5095822;28;20200;-87
2021/10/02 08:50:29;;;;;;;2.33;1.70;;;;;;;;;;5096032;28;20189;-85
2021/10/02 08:53:00;;;;;;;2.63;1.33;;;;;;;;;;5095221;28;20272;-86
2021/10/02 08:55:28;;;;;;;1.55;1.42;;;;;;;;;;5095350;28;20192;-87
2021/10/02 08:57:55;;;;;;;2.00;1.85;;;;;;;;;;5094181;28;20180;-86
2021/10/02 09:00:25;;;;;;;1.95;1.70;;;;;;;;;;5097701;28;20208;-87
2021/10/02 09:02:55;;;;;;;1.30;1.20;;;;;;;;;;5095985;28;20180;-88
2021/10/02 09:05:24;;;;;;;2.13;1.92;;;;;;;;;;5095171;28;20188;-86
2021/10/02 09:08:00;;;;;;;0.88;0.88;;;;;;;;;;5096745;28;20555;-86
2021/10/02 09:10:31;;;;;;;1.40;1.30;;;;;;;;;;5096634;28;20195;-86
2021/10/02 09:13:00;;;;;;;1.55;1.45;;;;;;;;;;5097339;28;20189;-85
2021/10/02 09:15:27;;;;;;;1.83;1.67;;;;;;;;;;5095795;28;20208;-87
2021/10/02 09:17:56;;;;;;;0.90;0.90;;;;;;;;;;5095494;28;20659;-86
2021/10/02 09:20:25;;;;;;;1.60;1.50;;;;;;;;;;5096283;28;20287;-86
2021/10/02 09:22:56;;;;;;;1.33;1.23;;;;;;;;;;5095250;28;20283;-88
2021/10/02 09:25:29;;;;;;;1.45;1.30;;;;;;;;;;5094411;28;20690;-87
2021/10/02 09:28:09;;;;;;;1.95;1.55;;;;;;;;;;5094154;28;20619;-86
2021/10/02 09:30:38;;;;;;;1.55;1.30;;;;;;;;;;5093170;28;20188;-88
2021/10/02 09:33:10;;;;;;;2.20;1.48;;;;;;;;;;5092854;28;20211;-88
2021/10/02 09:35:41;;;;;;;1.48;1.38;;;;;;;;;;5093319;28;20268;-87
2021/10/02 09:38:11;;;;;;;1.10;1.10;;;;;;;;;;5092503;28;20232;-90
2021/10/02 09:40:40;;;;;;;1.55;1.20;;;;;;;;;;5093459;28;20181;-87
2021/10/02 09:43:08;;;;;;;1.50;1.40;;;;;;;;;;5093562;28;20271;-87
2021/10/02 09:45:38;;;;;;;1.85;1.67;;;;;;;;;;5093031;28;20211;-89
2021/10/02 09:48:09;;;;;;;1.40;1.30;;;;;;;;;;5092547;28;20208;-86
2021/10/02 09:50:38;;;;;;;1.80;1.20;;;;;;;;;;5092372;28;20579;-87
2021/10/02 09:53:07;;;;;;;1.52;1.25;;;;;;;;;;5092323;28;20203;-88
2021/10/02 09:55:37;;;;;;;1.33;1.23;;;;;;;;;;5092557;28;20646;-87
2021/10/02 09:58:08;;;;;;;1.40;1.27;;;;;;;;;;5092100;28;20729;-86
2021/10/02 10:00:39;;;;;;;1.60;1.50;;;;;;;;;;5092669;28;20267;-88
2021/10/02 10:03:09;;;;;;;1.60;1.50;;;;;;;;;;5092624;28;20386;-87
2021/10/02 10:05:39;;;;;;;1.58;1.48;;;;;;;;;;5092312;28;20625;-87
2021/10/02 10:08:09;;;;;;;1.77;1.20;;;;;;;;;;5092365;28;20193;-87
2021/10/02 10:10:39;;;;;;;1.75;1.52;;;;;;;;;;5081703;28;20250;-85
2021/10/02 10:13:15;;;;;;;1.55;1.45;;;;;;;;;;5072458;28;20185;-88
2021/10/02 10:15:44;;;;;;;1.40;1.30;;;;;;;;;;5087970;28;20191;-86
2021/10/02 10:18:13;;;;;;;1.50;1.40;;;;;;;;;;5092940;28;20184;-85
2021/10/02 10:20:50;;;;;;;1.65;1.48;;;;;;;;;;5091812;28;20185;-86
2021/10/02 10:23:28;;;;;;;1.85;1.33;;;;;;;;;;5089765;28;20204;-85
2021/10/02 10:25:58;;;;;;;1.17;1.08;;;;;;;;;;5088690;28;20254;-86
2021/10/02 10:28:30;;;;;;;1.45;1.25;;;;;;;;;;5085928;28;20270;-86
2021/10/02 10:31:13;;;;;;;1.48;1.38;;;;;;;;;;5093313;28;20188;-86
2021/10/02 10:33:44;;;;;;;3.03;1.83;;;;;;;;;;5094583;28;20567;-86
2021/10/02 10:36:13;;;;;;;3.13;2.00;;;;;;;;;;5094177;28;20645;-85
2021/10/02 10:38:43;;;;;;;1.63;1.52;;;;;;;;;;5093767;28;20236;-85
2021/10/02 10:41:14;;;;;;;3.35;1.65;;;;;;;;;;5085309;28;20199;-87
2021/10/02 10:43:44;;;;;;;1.83;1.40;;;;;;;;;;5073351;28;20189;-86
2021/10/02 10:46:16;;;;;;;1.30;1.20;;;;;;;;;;5075811;28;20601;-87
2021/10/02 10:49:13;;;;;;;1.60;1.10;;;;;;;;;;5086822;28;20216;-86
2021/10/02 10:51:43;;;;;;;2.10;1.60;;;;;;;;;;5094949;28;20257;-86
2021/10/02 10:54:17;;;;;;;1.40;1.30;;;;;;;;;;5097126;28;20196;-86
2021/10/02 10:56:49;;;;;;;1.13;1.02;;;;;;;;;;5097367;28;20275;-86
2021/10/02 10:59:18;;;;;;;1.52;1.23;;;;;;;;;;5097321;28;20310;-87
2021/10/02 11:01:48;;;;;;;1.20;1.10;;;;;;;;;;5097553;28;20181;-86
2021/10/02 11:04:38;;;;;;;1.75;1.40;;;;;;;;;;5096657;28;20196;-85
2021/10/02 11:07:09;;;;;;;2.20;1.50;;;;;;;;;;5075427;28;20200;-85
2021/10/02 11:09:39;;;;;;;1.30;1.20;;;;;;;;;;5097096;28;20224;-86
2021/10/02 11:12:08;;;;;;;2.58;1.35;;;;;;;;;;5084950;28;20199;-85
2021/10/02 11:15:05;;;;;;;1.67;1.40;;;;;;;;;;5076501;28;20197;-86
2021/10/02 11:17:44;;;;;;;1.17;1.08;;;;;;;;;;5084272;28;20287;-85
2021/10/02 11:20:47;;;;;;;1.20;1.10;;;;;;;;;;5076976;28;20224;-85
2021/10/02 11:24:10;;;;;;;1.20;1.10;;;;;;;;;;5077007;28;20234;-86
2021/10/02 11:26:44;;;;;;;1.65;1.10;;;;;;;;;;5076528;28;20695;-86
2021/10/02 11:29:34;;;;;;;1.77;0.93;;;;;;;;;;5076446;28;20610;-86
2021/10/02 11:32:29;;;;;;;2.17;1.13;;;;;;;;;;5070608;28;20211;-85
2021/10/02 11:35:26;;;;;;;1.20;1.08;;;;;;;;;;5075131;28;20733;-87
2021/10/02 11:37:57;;;;;;;1.33;1.23;;;;;;;;;;5073563;28;20241;-87
2021/10/02 11:41:01;;;;;;;1.88;1.73;;;;;;;;;;5073846;28;20283;-87
2021/10/02 11:43:32;;;;;;;1.25;1.15;;;;;;;;;;5074389;28;20212;-87
2021/10/02 11:46:04;;;;;;;1.23;1.13;;;;;;;;;;5074003;28;20225;-87
2021/10/02 11:48:50;;;;;;;1.10;1.02;;;;;;;;;;5073972;28;20232;-89
2021/10/02 11:51:29;;;;;;;1.60;1.50;;;;;;;;;;5071675;28;20663;-87
2021/10/02 11:54:13;;;;;;;1.35;1.10;;;;;;;;;;5073922;28;20197;-88
2021/10/02 11:56:43;;;;;;;3.50;1.67;;;;;;;;;;5073941;28;20201;-86
2021/10/02 11:59:11;;;;;;;2.03;1.30;;;;;;;;;;5073856;28;20225;-87
2021/10/02 12:01:42;;;;;;;1.33;1.23;;;;;;;;;;5073588;28;20201;-87
2021/10/02 12:04:13;;;;;;;1.30;1.20;;;;;;;;;;5073936;28;20201;-87
2021/10/02 12:06:42;;;;;;;1.70;1.60;;;;;;;;;;5073648;28;20228;-88
2021/10/02 12:09:13;;;;;;;1.52;1.05;;;;;;;;;;5073515;28;20622;-87
2021/10/02 12:11:47;;;;;;;1.08;1.02;;;;;;;;;;5073823;28;20616;-89
2021/10/02 12:14:17;;;;;;;1.30;1.20;;;;;;;;;;5073378;28;20200;-87
2021/10/02 12:16:45;;;;;;;1.20;1.10;;;;;;;;;;5074589;28;20663;-85
2021/10/02 12:19:20;;;;;;;1.20;1.10;;;;;;;;;;5072770;28;20224;-87
2021/10/02 12:21:50;;;;;;;1.23;1.10;;;;;;;;;;5073730;28;20181;-87
2021/10/02 12:24:21;;;;;;;1.17;1.10;;;;;;;;;;5072715;28;20651;-87
2021/10/02 12:26:56;;;;;;;1.48;1.00;;;;;;;;;;5072113;28;20205;-87
2021/10/02 12:29:28;;;;;;;1.50;1.40;;;;;;;;;;5073515;28;20699;-87
2021/10/02 12:32:02;;;;;;;1.10;1.05;;;;;;;;;;5073043;28;20189;-87
2021/10/02 12:34:38;;;;;;;1.08;0.98;;;;;;;;;;5073013;28;20197;-87
2021/10/02 12:37:11;;;;;;;2.25;1.05;;;;;;;;;;5072593;28;20201;-87
2021/10/02 12:39:43;;;;;;;2.08;1.30;;;;;;;;;;5073716;28;20607;-86
2021/10/02 12:42:14;;;;;;;0.95;0.88;;;;;;;;;;5073062;28;20671;-87
2021/10/02 12:44:45;;;;;;;1.13;1.02;;;;;;;;;;5072914;28;20211;-88
2021/10/02 12:47:13;;;;;;;1.13;0.90;;;;;;;;;;5073313;28;20213;-87
2021/10/02 12:49:44;;;;;;;1.55;1.38;;;;;;;;;;5072680;28;20303;-87
2021/10/02 12:52:13;;;;;;;1.23;1.13;;;;;;;;;;5072847;28;20203;-87
2021/10/02 12:54:42;;;;;;;0.98;0.98;;;;;;;;;;5073003;28;20201;-87
2021/10/02 12:57:14;;;;;;;2.03;1.83;;;;;;;;;;5073059;28;20201;-87
2021/10/02 12:59:48;;;;;;;1.30;1.20;;;;;;;;;;5072691;28;20578;-87
2021/10/02 13:02:19;;;;;;;0.90;0.90;;;;;;;;;;5072408;28;20196;-87
2021/10/02 13:04:49;;;;;;;0.85;0.80;;;;;;;;;;5072415;28;20659;-87
2021/10/02 13:07:32;;;;;;;1.40;1.30;;;;;;;;;;5072446;28;20232;-86
2021/10/02 13:10:10;;;;;;;1.55;0.80;;;;;;;;;;5072894;28;20228;-88
2021/10/02 13:12:41;;;;;;;1.50;1.05;;;;;;;;;;5073264;28;20584;-87
2021/10/02 13:15:22;;;;;;;1.20;0.80;;;;;;;;;;5073303;28;20207;-88
2021/10/02 13:17:58;;;;;;;1.10;1.00;;;;;;;;;;5072950;28;20235;-87
2021/10/02 13:20:29;;;;;;;0.70;0.70;;;;;;;;;;5072590;28;20200;-87
2021/10/02 13:22:57;;;;;;;0.93;0.93;;;;;;;;;;5072533;28;20205;-87
2021/10/02 13:25:28;;;;;;;1.00;0.93;;;;;;;;;;5072670;28;20555;-87
2021/10/02 13:27:59;;;;;;;1.20;1.10;;;;;;;;;;5072467;28;20240;-87
2021/10/02 13:30:33;;;;;;;0.90;0.90;;;;;;;;;;5072135;28;20204;-88
2021/10/02 13:33:06;;;;;;;1.55;1.13;;;;;;;;;;5072457;28;20196;-88
2021/10/02 13:35:40;;;;;;;0.85;0.85;;;;;;;;;;5072569;28;20186;-87
2021/10/02 13:38:09;;;;;;;0.95;0.82;;;;;;;;;;5072200;28;20216;-87
2021/10/02 13:40:39;;;;;;;1.00;1.00;;;;;;;;;;5072857;28;20201;-87
2021/10/02 13:43:12;;;;;;;0.90;0.90;;;;;;;;;;5073198;28;20216;-87
2021/10/02 13:45:43;;;;;;;1.02;0.93;;;;;;;;;;5073002;28;20200;-87
2021/10/02 13:48:12;;;;;;;0.80;0.80;;;;;;;;;;5074044;28;20743;-87
2021/10/02 13:50:44;;;;;;;1.02;0.93;;;;;;;;;;5072438;28;20573;-86
2021/10/02 13:53:13;;;;;;;1.20;1.10;;;;;;;;;;5075065;28;20182;-87
2021/10/02 13:55:41;;;;;;;2.03;0.90;;;;;;;;;;5076714;28;20197;-88
2021/10/02 13:58:09;;;;;;;1.30;1.20;;;;;;;;;;5074356;28;20208;-88
2021/10/02 14:00:37;;;;;;;1.10;1.00;;;;;;;;;;5074622;28;20280;-86
2021/10/02 14:03:06;;;;;;;1.70;1.30;;;;;;;;;;5073397;28;20211;-88
2021/10/02 14:05:33;;;;;;;1.10;1.10;;;;;;;;;;5072547;28;20207;-87
2021/10/02 14:08:02;;;;;;;1.10;1.00;;;;;;;;;;5071988;28;20231;-87
2021/10/02 14:10:31;;;;;;;1.05;1.00;;;;;;;;;;5072205;28;20243;-87
2021/10/02 14:13:00;;;;;;;1.25;0.95;;;;;;;;;;5072732;28;20584;-87
2021/10/02 14:15:27;;;;;;;0.93;0.85;;;;;;;;;;5072565;28;20190;-86
2021/10/02 14:17:55;;;;;;;1.20;1.10;;;;;;;;;;5072711;28;20197;-86
2021/10/02 14:20:22;;;;;;;1.02;0.98;;;;;;;;;;5073552;28;20232;-86
2021/10/02 14:22:50;;;;;;;0.85;0.85;;;;;;;;;;5075836;28;20205;-86
2021/10/02 14:25:19;;;;;;;1.27;0.98;;;;;;;;;;5075536;28;20197;-88
2021/10/02 14:27:47;;;;;;;1.20;1.10;;;;;;;;;;5075804;28;20217;-87
2021/10/02 14:30:14;;;;;;;0.80;0.80;;;;;;;;;;5076024;28;20249;-87
2021/10/02 14:32:42;;;;;;;0.95;0.95;;;;;;;;;;5075832;28;20207;-87
2021/10/02 14:35:13;;;;;;;0.90;0.90;;;;;;;;;;5076340;28;20201;-88
2021/10/02 14:37:40;;;;;;;1.52;1.42;;;;;;;;;;5080035;28;20228;-87
2021/10/02 14:40:10;;;;;;;1.80;1.10;;;;;;;;;;5080868;28;20221;-87
2021/10/02 14:42:39;;;;;;;1.60;1.10;;;;;;;;;;5078911;28;20378;-87
2021/10/02 14:45:09;;;;;;;0.75;0.70;;;;;;;;;;5095091;28;20184;-85
2021/10/02 14:47:37;;;;;;;1.40;1.10;;;;;;;;;;5099375;28;20292;-86
2021/10/02 14:50:06;;;;;;;1.90;1.10;;;;;;;;;;5080698;28;20253;-86
2021/10/02 14:52:35;;;;;;;0.82;0.82;;;;;;;;;;5093828;28;20218;-85
2021/10/02 14:55:05;;;;;;;1.65;1.20;;;;;;;;;;5096915;28;20184;-87
2021/10/02 14:57:33;;;;;;;1.13;1.02;;;;;;;;;;5097567;28;20180;-86
2021/10/02 15:00:06;;;;;;;1.33;1.23;;;;;;;;;;5099360;28;20212;-86
2021/10/02 15:22:21;;;;;;;1.98;1.88;;;;;;;;;;4821458;29;20269;-85
2021/10/02 15:24:51;;;;;;;0.88;0.85;;;;;;;;;;4916267;28;20206;-85
2021/10/02 15:27:30;;;;;;;0.80;0.80;;;;;;;;;;5084212;28;20212;-86
2021/10/02 15:29:59;;;;;;;0.90;0.90;;;;;;;;;;5095496;28;20230;-86
2021/10/02 15:32:27;;;;;;;1.63;1.42;;;;;;;;;;5077980;28;20197;-86
2021/10/02 15:35:00;;;;;;;0.90;0.90;;;;;;;;;;5088167;28;20184;-88
2021/10/02 15:37:29;;;;;;;1.30;1.20;;;;;;;;;;5092148;28;20216;-86
2021/10/02 15:39:57;;;;;;;1.10;1.10;;;;;;;;;;5094160;28;20243;-86
2021/10/02 15:42:25;;;;;;;1.00;1.00;;;;;;;;;;5093792;28;20204;-86
2021/10/02 15:44:56;;;;;;;0.82;0.82;;;;;;;;;;5094536;28;20196;-86
2021/10/02 15:47:23;;;;;;;0.98;0.98;;;;;;;;;;5095095;28;20243;-86
2021/10/02 15:49:52;;;;;;;0.70;0.70;;;;;;;;;;5094096;28;20568;-87
2021/10/02 15:52:23;;;;;;;0.90;0.90;;;;;;;;;;5094209;28;20278;-87
2021/10/02 15:54:51;;;;;;;1.00;1.00;;;;;;;;;;5093949;28;20210;-87
2021/10/02 15:57:22;;;;;;;0.68;0.68;;;;;;;;;;5093811;28;20646;-86
2021/10/02 15:59:54;;;;;;;0.95;0.85;;;;;;;;;;5093996;28;20212;-86
2021/10/02 16:02:50;;;;;;;0.90;0.90;;;;;;;;;;5094052;28;20196;-87
2021/10/02 16:05:21;;;;;;;1.35;1.20;;;;;;;;;;5087783;28;20283;-86
2021/10/02 16:07:49;;;;;;;1.00;0.98;;;;;;;;;;5094167;28;20690;-86
2021/10/02 16:10:21;;;;;;;0.88;0.88;;;;;;;;;;5094080;28;20230;-86
2021/10/02 16:12:56;;;;;;;1.35;1.20;;;;;;;;;;5094000;28;20207;-86
2021/10/02 16:15:25;;;;;;;0.70;0.70;;;;;;;;;;5094483;28;20329;-86
2021/10/02 16:17:53;;;;;;;0.70;0.70;;;;;;;;;;5093618;28;20606;-86
2021/10/02 16:20:21;;;;;;;0.63;0.63;;;;;;;;;;5093946;28;20296;-86
2021/10/02 16:22:52;;;;;;;0.77;0.77;;;;;;;;;;5093443;28;20214;-88
2021/10/02 16:25:23;;;;;;;1.05;1.05;;;;;;;;;;5093504;28;20200;-86